Pagrindinis puslapis
METAR-TAF:

METAR-TAF

Oro uostai :

McKinley Park, Aliaska, Jungtinės Amerikos Valstijos

platuma: 63-44N, ilguma: 148-55W, Aukštis: 524 m

Dabartinis oras

Ataskaita buvo paskelbta 25 minutes, ne 19:56 UTC
Ramus vėjas
Temperatūra -14°C
Drėgmė 78%
Slėgis 1033 hPa
Matomumas: 16.1 km
Giedras dangus

METAR: PAIN 221956Z AUTO 00000KT 10SM CLR M14/M17 A3051 RMK AO2 SLP391 T11391172 FZRANO

Laikas: 12:21 (20:21 UTC)


TAF: trūkstamas

Orai ataskaitas ir orų prognozės (METAR, TAF).

turimą stotys yra geltonos ir raudonos taškus žemėlapyje.

Perkelti pele per norėdami pamatyti stoties vardą.

Tada spustelėkite, norėdami matyti oro stebėjimo ir prognozės.

Norėdami pakeisti žemėlapį: spustelėkite ant žalios mygtukų su juodo kryžiaus žemyn,; žalią mygtuką su brūkšneliu, jei norite nutolinti; arba žalių rodyklių gretimoms žemėlapius.


METAR-TAF: